createdAt,value
2018-05-31T00:01:53.260Z,22.66
2018-05-31T00:04:20.721Z,22.85
2018-05-31T00:06:48.194Z,22.95
2018-05-31T00:09:15.634Z,22.83
2018-05-31T00:11:43.124Z,22.82
2018-05-31T00:14:10.579Z,22.50
2018-05-31T00:16:38.049Z,22.50
2018-05-31T00:19:05.519Z,22.66
2018-05-31T00:21:32.994Z,22.18
2018-05-31T00:24:00.462Z,22.40
2018-05-31T00:26:27.980Z,22.53
2018-05-31T00:28:55.529Z,22.62
2018-05-31T00:31:23.018Z,22.63
2018-05-31T00:33:50.452Z,22.38
2018-05-31T00:36:17.900Z,22.03
2018-05-31T00:38:45.402Z,22.13
2018-05-31T00:41:12.852Z,22.37
2018-05-31T00:43:40.332Z,22.17
2018-05-31T00:46:07.778Z,22.34
2018-05-31T00:48:35.991Z,22.36
2018-05-31T00:51:03.449Z,22.45
2018-05-31T00:53:30.987Z,22.05
2018-05-31T00:56:10.109Z,22.15
2018-05-31T00:58:37.581Z,22.07
2018-05-31T01:01:05.074Z,22.04
2018-05-31T01:03:32.535Z,22.21
2018-05-31T01:06:00.029Z,22.27
2018-05-31T01:08:27.511Z,22.24
2018-05-31T01:10:55.326Z,22.24
2018-05-31T01:13:22.776Z,22.28
2018-05-31T01:15:50.266Z,22.33
2018-05-31T01:18:17.816Z,22.39
2018-05-31T01:20:45.322Z,22.40
2018-05-31T01:23:12.956Z,22.28
2018-05-31T01:25:40.477Z,22.09
2018-05-31T01:28:08.049Z,22.08
2018-05-31T01:30:35.634Z,22.08
2018-05-31T01:33:03.163Z,21.78
2018-05-31T01:35:30.848Z,20.93
2018-05-31T01:38:10.117Z,21.15
2018-05-31T01:40:38.608Z,21.13
2018-05-31T01:43:06.061Z,21.04
2018-05-31T01:45:33.525Z,21.26
2018-05-31T01:48:01.549Z,21.33
2018-05-31T01:50:29.151Z,21.54
2018-05-31T01:52:56.638Z,21.63
2018-05-31T01:55:24.319Z,21.51
2018-05-31T01:57:51.848Z,21.31
2018-05-31T02:00:19.297Z,21.34
2018-05-31T02:02:46.787Z,21.47
2018-05-31T02:05:14.249Z,21.47
2018-05-31T02:07:41.761Z,21.63
2018-05-31T02:10:09.275Z,21.68
2018-05-31T02:12:36.806Z,21.71
2018-05-31T02:15:04.221Z,21.71
2018-05-31T02:17:31.715Z,21.67
2018-05-31T02:19:59.199Z,21.61
2018-05-31T02:22:26.673Z,21.58
2018-05-31T02:24:54.142Z,21.50
2018-05-31T02:27:21.727Z,21.46
2018-05-31T02:29:49.199Z,21.40
2018-05-31T02:32:16.651Z,21.31
2018-05-31T02:34:44.140Z,21.20
2018-05-31T02:37:12.770Z,21.04
2018-05-31T02:39:40.271Z,20.88
2018-05-31T02:42:07.730Z,20.86
2018-05-31T02:44:35.228Z,20.85
2018-05-31T02:47:02.673Z,20.66
2018-05-31T02:49:30.271Z,20.47
2018-05-31T02:51:57.736Z,20.36
2018-05-31T02:54:25.213Z,20.27
2018-05-31T02:56:52.651Z,20.24
2018-05-31T02:59:20.107Z,20.14
2018-05-31T03:01:47.561Z,20.23
2018-05-31T03:04:15.051Z,20.33
2018-05-31T03:06:42.537Z,20.18
2018-05-31T03:09:10.801Z,20.00
2018-05-31T03:11:39.058Z,19.86
2018-05-31T03:14:06.577Z,19.88
2018-05-31T03:16:34.048Z,19.98
2018-05-31T03:19:01.490Z,19.98
2018-05-31T03:21:28.994Z,19.93
2018-05-31T03:23:56.676Z,19.94
2018-05-31T03:26:24.228Z,19.97
2018-05-31T03:28:51.835Z,20.10
2018-05-31T03:31:19.388Z,20.17
2018-05-31T03:33:46.834Z,20.29
2018-05-31T03:36:14.308Z,20.37
2018-05-31T03:38:41.800Z,20.19
2018-05-31T03:41:09.318Z,19.97
2018-05-31T03:43:36.772Z,20.14
2018-05-31T03:46:04.241Z,20.30
2018-05-31T03:48:32.037Z,20.39
2018-05-31T03:50:59.479Z,20.47
2018-05-31T03:53:26.956Z,20.53
2018-05-31T03:55:54.385Z,20.60
2018-05-31T03:58:21.861Z,20.68
2018-05-31T04:00:49.335Z,20.69
2018-05-31T04:03:16.913Z,20.71
2018-05-31T04:05:44.378Z,20.76
2018-05-31T04:08:11.851Z,20.77
2018-05-31T04:10:39.309Z,20.81
2018-05-31T04:13:06.786Z,20.86
2018-05-31T04:15:34.327Z,20.89
2018-05-31T04:18:01.821Z,20.94
2018-05-31T04:20:29.280Z,20.98
2018-05-31T04:22:56.751Z,20.87
2018-05-31T04:25:24.241Z,20.90
2018-05-31T04:27:51.697Z,20.96
2018-05-31T04:30:19.185Z,20.99
2018-05-31T04:32:46.689Z,21.01
2018-05-31T04:35:14.200Z,21.03
2018-05-31T04:37:41.651Z,21.05
2018-05-31T04:40:09.162Z,21.10
2018-05-31T04:42:36.673Z,21.10
2018-05-31T04:45:04.185Z,21.14
2018-05-31T04:47:31.668Z,21.18
2018-05-31T04:49:59.154Z,21.21
2018-05-31T04:52:26.590Z,21.22
2018-05-31T04:54:54.049Z,21.24
2018-05-31T04:57:21.564Z,21.26
2018-05-31T04:59:49.047Z,21.21
2018-05-31T05:02:16.549Z,21.23
2018-05-31T05:04:44.093Z,21.21
2018-05-31T05:07:11.566Z,21.18
2018-05-31T05:09:39.167Z,20.99
2018-05-31T05:12:06.804Z,21.00
2018-05-31T05:14:34.402Z,21.03
2018-05-31T05:17:02.271Z,21.17
2018-05-31T05:19:29.722Z,21.19
2018-05-31T05:21:57.298Z,21.17
2018-05-31T05:24:24.771Z,21.23
2018-05-31T05:26:52.228Z,21.31
2018-05-31T05:29:19.682Z,21.32
2018-05-31T05:31:47.168Z,21.36
2018-05-31T05:34:14.656Z,21.36
2018-05-31T05:36:42.157Z,21.39
2018-05-31T05:39:09.632Z,21.29
2018-05-31T05:41:37.780Z,21.27
2018-05-31T05:44:05.326Z,21.45
2018-05-31T05:46:32.776Z,21.43
2018-05-31T05:49:00.276Z,21.44
2018-05-31T05:51:28.191Z,21.52
2018-05-31T05:53:56.063Z,21.61
2018-05-31T05:56:23.569Z,21.58
2018-05-31T05:58:51.010Z,21.49
2018-05-31T06:01:18.562Z,21.52
2018-05-31T06:03:46.189Z,21.67
2018-05-31T06:06:13.633Z,21.81
2018-05-31T06:08:41.134Z,21.88
2018-05-31T06:11:08.617Z,21.96
2018-05-31T06:13:36.242Z,22.01
2018-05-31T06:16:03.996Z,22.10
2018-05-31T06:18:31.437Z,22.15
2018-05-31T06:20:58.889Z,21.84
2018-05-31T06:23:26.327Z,21.74
2018-05-31T06:25:54.342Z,21.87
2018-05-31T06:28:22.933Z,22.05
2018-05-31T06:30:50.428Z,21.86
2018-05-31T06:33:17.876Z,21.82
2018-05-31T06:35:45.366Z,22.02
2018-05-31T06:38:12.808Z,22.06
2018-05-31T06:40:40.280Z,22.21
2018-05-31T06:43:07.759Z,22.06
2018-05-31T06:45:35.207Z,22.23
2018-05-31T06:48:02.724Z,22.41
2018-05-31T06:50:30.172Z,22.54
2018-05-31T06:52:57.714Z,22.62
2018-05-31T06:55:25.168Z,22.78
2018-05-31T06:57:52.640Z,22.85
2018-05-31T07:00:20.088Z,22.84
2018-05-31T07:02:47.572Z,22.95
2018-05-31T07:05:15.016Z,23.08
2018-05-31T07:07:42.490Z,23.18
2018-05-31T07:10:09.923Z,23.13
2018-05-31T07:12:37.380Z,23.12
2018-05-31T07:15:04.811Z,23.19
2018-05-31T07:17:32.332Z,23.24
2018-05-31T07:20:00.188Z,23.33
2018-05-31T07:22:28.619Z,23.45
2018-05-31T07:24:56.083Z,23.59
2018-05-31T07:27:23.541Z,23.57
2018-05-31T07:29:51.006Z,23.62
2018-05-31T07:32:18.449Z,23.74
2018-05-31T07:34:46.004Z,23.74
2018-05-31T07:37:13.454Z,23.75
2018-05-31T07:39:40.954Z,23.52
2018-05-31T07:42:08.414Z,23.52
2018-05-31T07:44:35.918Z,23.84
2018-05-31T07:47:03.394Z,23.97
2018-05-31T07:49:30.855Z,24.04
2018-05-31T07:51:58.311Z,24.15
2018-05-31T07:54:25.834Z,24.16
2018-05-31T07:56:53.299Z,24.34
2018-05-31T07:59:20.768Z,24.38
2018-05-31T08:01:48.228Z,24.21
2018-05-31T08:04:15.771Z,24.32
2018-05-31T08:06:43.608Z,24.28
2018-05-31T08:09:11.063Z,24.44
2018-05-31T08:11:38.547Z,24.59
2018-05-31T08:14:05.984Z,24.66
2018-05-31T08:16:33.435Z,24.71
2018-05-31T08:19:00.867Z,24.71
2018-05-31T08:21:28.310Z,24.85
2018-05-31T08:23:56.572Z,24.93
2018-05-31T08:26:24.057Z,24.92
2018-05-31T08:28:51.513Z,25.15
2018-05-31T08:31:18.963Z,25.28
2018-05-31T08:33:46.440Z,25.40
2018-05-31T08:36:13.892Z,25.50
2018-05-31T08:38:41.398Z,25.63
2018-05-31T08:41:08.880Z,25.73
2018-05-31T08:43:36.637Z,25.78
2018-05-31T08:46:04.162Z,25.79
2018-05-31T08:48:31.687Z,25.83
2018-05-31T08:50:59.182Z,25.86
2018-05-31T08:53:26.634Z,25.84
2018-05-31T08:55:54.159Z,26.00
2018-05-31T08:58:22.064Z,25.94
2018-05-31T09:00:49.686Z,25.91
2018-05-31T09:03:17.790Z,25.82
2018-05-31T09:05:45.257Z,26.01
2018-05-31T09:08:12.749Z,26.17
2018-05-31T09:10:40.521Z,26.22
2018-05-31T09:13:08.319Z,26.31
2018-05-31T09:15:35.786Z,26.46
2018-05-31T09:18:03.242Z,26.51
2018-05-31T09:20:30.687Z,26.58
2018-05-31T09:22:58.141Z,26.71
2018-05-31T09:25:25.617Z,26.79
2018-05-31T09:27:53.062Z,26.76
2018-05-31T09:30:20.539Z,26.75
2018-05-31T09:32:48.022Z,26.92
2018-05-31T09:35:15.508Z,27.05
2018-05-31T09:37:43.075Z,27.12
2018-05-31T09:40:10.688Z,27.25
2018-05-31T09:42:38.179Z,27.31
2018-05-31T09:45:08.837Z,27.37
2018-05-31T09:47:38.320Z,27.34
2018-05-31T09:50:09.010Z,27.48
2018-05-31T09:52:38.716Z,27.57
2018-05-31T09:55:10.820Z,27.72
2018-05-31T09:57:38.330Z,27.65
2018-05-31T10:00:07.766Z,27.77
2018-05-31T10:02:38.876Z,27.28
2018-05-31T10:05:08.321Z,27.58
2018-05-31T10:07:38.015Z,27.59
2018-05-31T10:10:07.404Z,27.44
2018-05-31T10:12:37.452Z,27.70
2018-05-31T10:15:07.422Z,27.76
2018-05-31T10:17:36.589Z,27.91
2018-05-31T10:20:06.249Z,28.15
2018-05-31T10:22:35.480Z,28.29
2018-05-31T10:25:04.980Z,28.28
2018-05-31T10:27:34.441Z,28.31
2018-05-31T10:30:05.317Z,28.41
2018-05-31T10:32:34.663Z,28.52
2018-05-31T10:35:04.436Z,28.52
2018-05-31T10:37:34.673Z,28.32
2018-05-31T10:40:04.519Z,28.57
2018-05-31T10:42:32.975Z,28.65
2018-05-31T10:45:02.889Z,28.81
2018-05-31T10:47:32.113Z,28.66
2018-05-31T10:49:59.595Z,28.72
2018-05-31T10:52:28.752Z,28.75
2018-05-31T10:54:58.699Z,28.80
2018-05-31T10:57:27.881Z,28.80
2018-05-31T10:59:57.472Z,28.81
2018-05-31T11:02:24.947Z,28.91
2018-05-31T11:04:54.697Z,28.93
2018-05-31T11:07:24.923Z,28.81
2018-05-31T11:09:57.280Z,28.97
2018-05-31T11:12:28.153Z,28.94
2018-05-31T11:14:57.536Z,28.88
2018-05-31T11:17:27.179Z,28.94
2018-05-31T11:19:56.264Z,29.05
2018-05-31T11:22:26.117Z,29.26
2018-05-31T11:24:55.578Z,29.17
2018-05-31T11:27:24.918Z,29.26
2018-05-31T11:29:54.280Z,29.31
2018-05-31T11:32:24.660Z,29.28
2018-05-31T11:34:54.279Z,29.43
2018-05-31T11:37:24.954Z,29.55
2018-05-31T11:39:54.224Z,29.61
2018-05-31T11:42:24.255Z,29.72
2018-05-31T11:44:53.139Z,29.87
2018-05-31T11:47:23.141Z,29.91
2018-05-31T11:49:53.618Z,30.04
2018-05-31T11:52:23.580Z,29.86
2018-05-31T11:54:54.052Z,29.93
2018-05-31T11:57:23.126Z,29.97
2018-05-31T11:59:52.257Z,30.17
2018-05-31T12:02:22.146Z,30.41
2018-05-31T12:04:51.919Z,30.62
2018-05-31T12:07:19.367Z,30.62
2018-05-31T12:09:48.633Z,30.41
2018-05-31T12:12:18.084Z,30.42
2018-05-31T12:14:47.843Z,30.46
2018-05-31T12:17:17.230Z,30.63
2018-05-31T12:19:44.744Z,30.84
2018-05-31T12:22:14.064Z,30.83
2018-05-31T12:24:43.490Z,30.91
2018-05-31T12:27:12.468Z,30.94
2018-05-31T12:29:41.999Z,31.04
2018-05-31T12:32:11.734Z,31.23
2018-05-31T12:34:41.657Z,31.34
2018-05-31T12:37:11.223Z,31.29
2018-05-31T12:39:40.254Z,31.40
2018-05-31T12:42:09.674Z,31.73
2018-05-31T12:44:38.713Z,31.97
2018-05-31T12:47:08.233Z,32.84
2018-05-31T12:49:37.079Z,33.99
2018-05-31T12:52:06.532Z,35.74
2018-05-31T12:54:35.630Z,35.95
2018-05-31T12:57:05.090Z,36.47
2018-05-31T12:59:35.041Z,37.46
2018-05-31T13:02:05.431Z,38.16
2018-05-31T13:04:35.035Z,37.95
2018-05-31T13:07:04.897Z,38.58
2018-05-31T13:09:34.963Z,38.51
2018-05-31T13:12:04.879Z,38.14
2018-05-31T13:14:35.064Z,39.73
2018-05-31T13:17:04.892Z,39.40
2018-05-31T13:19:33.528Z,40.00
2018-05-31T13:22:03.183Z,39.78
2018-05-31T13:24:37.052Z,39.42
2018-05-31T13:27:06.307Z,37.59
2018-05-31T13:29:38.061Z,36.91
2018-05-31T13:32:06.892Z,36.43
2018-05-31T13:34:40.948Z,35.54
2018-05-31T13:37:09.791Z,33.51
2018-05-31T13:39:37.334Z,34.62
2018-05-31T13:42:06.564Z,32.61
2018-05-31T13:44:37.387Z,32.28
2018-05-31T13:47:06.756Z,31.33
2018-05-31T13:49:34.345Z,30.66
2018-05-31T13:52:03.717Z,30.70
2018-05-31T13:54:33.429Z,30.41
2018-05-31T13:57:03.071Z,29.97
2018-05-31T13:59:32.148Z,29.66
2018-05-31T14:02:01.439Z,29.43
2018-05-31T14:04:30.671Z,29.28
2018-05-31T14:07:00.319Z,30.19
2018-05-31T14:09:29.527Z,30.41
2018-05-31T14:11:58.722Z,30.93
2018-05-31T14:14:28.803Z,30.69
2018-05-31T14:16:58.565Z,31.10
2018-05-31T14:19:27.773Z,31.36
2018-05-31T14:22:01.082Z,31.24
2018-05-31T14:24:30.892Z,31.46
2018-05-31T14:27:00.934Z,30.92
2018-05-31T14:29:34.591Z,30.34
2018-05-31T14:32:04.386Z,30.45
2018-05-31T14:34:33.712Z,30.44
2018-05-31T14:37:05.751Z,30.23
2018-05-31T14:39:44.265Z,30.02
2018-05-31T14:42:13.682Z,30.33
2018-05-31T14:44:44.020Z,30.35
2018-05-31T14:47:14.192Z,30.69
2018-05-31T14:49:43.337Z,30.06
2018-05-31T14:52:13.211Z,30.12
2018-05-31T14:54:43.781Z,29.67
2018-05-31T14:57:13.593Z,29.90
2018-05-31T14:59:43.120Z,29.90
2018-05-31T15:02:12.890Z,29.96
2018-05-31T15:04:42.258Z,30.29
2018-05-31T15:07:15.015Z,30.01
2018-05-31T15:09:44.495Z,30.23
2018-05-31T15:12:14.774Z,30.17
2018-05-31T15:14:48.594Z,30.05
2018-05-31T15:17:20.777Z,30.42
2018-05-31T15:19:52.126Z,30.28
2018-05-31T15:22:23.979Z,30.11
2018-05-31T15:25:02.386Z,29.69
2018-05-31T15:27:31.655Z,30.17
2018-05-31T15:30:01.238Z,30.17
2018-05-31T15:32:30.804Z,29.73
2018-05-31T15:34:59.897Z,29.67
2018-05-31T15:37:30.976Z,29.82
2018-05-31T15:40:04.782Z,29.96
2018-05-31T15:42:34.373Z,29.66
2018-05-31T15:45:03.552Z,29.46
2018-05-31T15:47:33.324Z,29.48
2018-05-31T15:50:03.028Z,29.31
2018-05-31T15:52:32.584Z,29.31
2018-05-31T15:55:00.563Z,29.13
2018-05-31T15:57:29.796Z,29.18
2018-05-31T16:00:01.047Z,29.31
2018-05-31T16:02:31.315Z,29.54
2018-05-31T16:05:01.786Z,29.34
2018-05-31T16:07:33.147Z,29.14
2018-05-31T16:10:03.709Z,29.12
2018-05-31T16:12:33.684Z,28.91
2018-05-31T16:15:01.158Z,29.17
2018-05-31T16:17:34.230Z,29.06
2018-05-31T16:20:07.326Z,28.66
2018-05-31T16:22:36.692Z,28.50
2018-05-31T16:25:05.603Z,28.69
2018-05-31T16:27:34.808Z,28.88
2018-05-31T16:30:04.143Z,28.87
2018-05-31T16:32:32.867Z,28.96
2018-05-31T16:35:02.908Z,29.11
2018-05-31T16:37:32.222Z,28.88
2018-05-31T16:40:01.975Z,28.73
2018-05-31T16:42:31.349Z,28.35
2018-05-31T16:45:01.256Z,28.11
2018-05-31T16:47:30.553Z,28.33
2018-05-31T16:49:59.844Z,28.43
2018-05-31T16:52:28.722Z,28.40
2018-05-31T16:54:57.231Z,28.22
2018-05-31T16:57:24.751Z,28.22
2018-05-31T16:59:53.145Z,27.86
2018-05-31T17:02:20.743Z,27.97
2018-05-31T17:04:48.315Z,28.02
2018-05-31T17:07:16.101Z,27.99
2018-05-31T17:09:49.066Z,28.10
2018-05-31T17:12:16.538Z,28.10
2018-05-31T17:15:11.831Z,28.11
2018-05-31T17:17:39.310Z,28.26
2018-05-31T17:20:07.623Z,28.39
2018-05-31T17:22:35.993Z,28.42
2018-05-31T17:25:03.454Z,28.36
2018-05-31T17:27:30.997Z,27.70
2018-05-31T17:29:58.457Z,27.59
2018-05-31T17:32:25.962Z,27.50
2018-05-31T17:34:55.355Z,27.37
2018-05-31T17:37:25.403Z,27.67
2018-05-31T17:39:57.881Z,27.78
2018-05-31T17:42:27.695Z,27.95
2018-05-31T17:44:57.102Z,27.80
2018-05-31T17:47:26.614Z,27.69
2018-05-31T17:49:56.010Z,27.75
2018-05-31T17:52:25.778Z,27.78
2018-05-31T17:54:55.705Z,27.71
2018-05-31T17:57:25.356Z,27.42
2018-05-31T17:59:54.504Z,27.51
2018-05-31T18:02:23.795Z,27.60
2018-05-31T18:04:53.188Z,27.66
2018-05-31T18:07:22.625Z,27.71
2018-05-31T18:09:55.631Z,27.45
2018-05-31T18:12:25.384Z,27.66
2018-05-31T18:14:54.978Z,27.74
2018-05-31T18:17:24.271Z,27.85
2018-05-31T18:19:53.727Z,27.80
2018-05-31T18:22:22.698Z,27.40
2018-05-31T18:24:51.600Z,27.48
2018-05-31T18:27:24.118Z,27.57
2018-05-31T18:29:53.548Z,27.61
2018-05-31T18:32:22.441Z,27.60
2018-05-31T18:34:52.217Z,27.61
2018-05-31T18:37:21.167Z,27.63
2018-05-31T18:39:50.339Z,27.36
2018-05-31T18:42:26.488Z,27.18
2018-05-31T18:44:55.789Z,26.97
2018-05-31T18:47:24.652Z,27.05
2018-05-31T18:49:53.878Z,27.22
2018-05-31T18:52:24.268Z,27.25
2018-05-31T18:54:53.702Z,27.32
2018-05-31T18:57:23.408Z,27.28
2018-05-31T18:59:52.997Z,27.38
2018-05-31T19:02:25.949Z,27.24
2018-05-31T19:04:55.372Z,26.96
2018-05-31T19:07:29.585Z,27.12
2018-05-31T19:09:59.246Z,27.17
2018-05-31T19:12:38.148Z,27.19
2018-05-31T19:15:07.254Z,27.29
2018-05-31T19:17:36.343Z,27.31
2018-05-31T19:20:03.827Z,27.29
2018-05-31T19:22:34.003Z,27.16
2018-05-31T19:25:12.698Z,27.05
2018-05-31T19:27:42.521Z,27.15
2018-05-31T19:30:17.583Z,27.18
2018-05-31T19:32:46.463Z,27.05
2018-05-31T19:35:25.664Z,26.51
2018-05-31T19:38:08.194Z,26.13
2018-05-31T19:40:37.066Z,25.76
2018-05-31T19:43:14.337Z,25.97
2018-05-31T19:45:47.303Z,26.01
2018-05-31T19:48:16.592Z,25.84
2018-05-31T19:50:55.456Z,26.00
2018-05-31T19:53:29.973Z,26.31
2018-05-31T19:55:58.944Z,26.50
2018-05-31T19:58:32.294Z,26.57
2018-05-31T20:01:06.872Z,26.65
2018-05-31T20:03:36.226Z,26.65
2018-05-31T20:06:05.336Z,26.62
2018-05-31T20:08:34.775Z,26.56
2018-05-31T20:11:04.263Z,26.52
2018-05-31T20:13:33.651Z,26.53
2018-05-31T20:16:03.283Z,26.10
2018-05-31T20:18:32.704Z,25.99
2018-05-31T20:21:03.052Z,26.02
2018-05-31T20:23:32.301Z,26.03
2018-05-31T20:26:01.978Z,26.11
2018-05-31T20:28:30.998Z,26.15
2018-05-31T20:31:01.026Z,26.25
2018-05-31T20:33:30.371Z,26.30
2018-05-31T20:35:59.748Z,26.30
2018-05-31T20:38:28.881Z,26.34
2018-05-31T20:40:58.105Z,26.27
2018-05-31T20:43:28.012Z,26.31
2018-05-31T20:45:57.247Z,26.35
2018-05-31T20:48:26.854Z,26.33
2018-05-31T20:50:56.719Z,26.29
2018-05-31T20:53:27.107Z,26.36
2018-05-31T20:55:56.230Z,26.34
2018-05-31T20:58:25.672Z,26.34
2018-05-31T21:00:53.114Z,26.34
2018-05-31T21:03:20.581Z,26.32
2018-05-31T21:05:49.980Z,26.25
2018-05-31T21:08:19.464Z,26.26
2018-05-31T21:10:48.856Z,26.29
2018-05-31T21:13:18.797Z,26.35
2018-05-31T21:15:48.382Z,26.21
2018-05-31T21:18:18.183Z,26.13
2018-05-31T21:20:47.403Z,26.19
2018-05-31T21:23:16.746Z,26.08
2018-05-31T21:25:46.873Z,25.82
2018-05-31T21:28:16.562Z,25.77
2018-05-31T21:30:46.158Z,25.64
2018-05-31T21:33:13.620Z,25.68
2018-05-31T21:35:41.230Z,25.61
2018-05-31T21:38:08.543Z,25.39
2018-05-31T21:40:36.035Z,25.20
2018-05-31T21:43:03.611Z,25.09
2018-05-31T21:45:31.635Z,24.92
2018-05-31T21:47:59.064Z,24.45
2018-05-31T21:50:26.830Z,24.29
2018-05-31T21:52:55.154Z,23.90
2018-05-31T21:55:22.625Z,23.34
2018-05-31T21:57:50.111Z,22.15
2018-05-31T22:00:31.230Z,21.05
2018-05-31T22:02:58.975Z,20.36
2018-05-31T22:05:26.569Z,19.72
2018-05-31T22:07:55.233Z,19.49
2018-05-31T22:10:22.673Z,19.39
2018-05-31T22:12:50.162Z,19.15
2018-05-31T22:15:17.665Z,18.98
2018-05-31T22:17:45.164Z,19.08
2018-05-31T22:20:12.631Z,19.28
2018-05-31T22:22:40.129Z,19.12
2018-05-31T22:25:08.373Z,18.63
2018-05-31T22:27:36.581Z,18.36
2018-05-31T22:30:04.096Z,18.07
2018-05-31T22:32:31.568Z,18.16
2018-05-31T22:34:59.030Z,18.16
2018-05-31T22:37:26.531Z,18.06
2018-05-31T22:39:53.981Z,18.22
2018-05-31T22:42:21.429Z,17.97
2018-05-31T22:44:50.797Z,18.00
2018-05-31T22:47:20.506Z,17.71
2018-05-31T22:49:49.794Z,17.50
2018-05-31T22:52:19.279Z,17.51
2018-05-31T22:54:48.546Z,17.47
2018-05-31T22:57:17.810Z,17.44
2018-05-31T22:59:47.408Z,17.43
2018-05-31T23:02:16.537Z,17.38
2018-05-31T23:04:46.101Z,17.38
2018-05-31T23:07:15.482Z,17.44
2018-05-31T23:09:44.937Z,17.51
2018-05-31T23:12:14.325Z,17.55
2018-05-31T23:14:43.758Z,17.61
2018-05-31T23:17:12.840Z,17.53
2018-05-31T23:19:42.491Z,17.59
2018-05-31T23:22:11.838Z,17.65
2018-05-31T23:24:41.059Z,17.70
2018-05-31T23:27:11.143Z,17.78
2018-05-31T23:29:40.845Z,17.86
2018-05-31T23:32:09.991Z,17.81
2018-05-31T23:34:39.629Z,17.84
2018-05-31T23:37:08.993Z,17.85
2018-05-31T23:39:38.103Z,17.93
2018-05-31T23:42:07.741Z,18.07
2018-05-31T23:44:36.871Z,18.20
2018-05-31T23:47:06.714Z,17.94
2018-05-31T23:49:36.056Z,17.73
2018-05-31T23:52:05.719Z,17.62
2018-05-31T23:54:35.112Z,17.49
2018-05-31T23:57:04.769Z,17.54
2018-05-31T23:59:34.246Z,17.48
